Time,TemperatureF,DewpointF,PressureIn,WindDirection,WindDirectionDegrees,WindSpeedMPH,WindSpeedGustMPH,Humidity,HourlyPrecipIn,Conditions,Clouds,dailyrainin,SoftwareType,DateUTC
2013-03-14 00:05:00,59.6,24.0,30.08,WSW,257,18.0,31.0,26,0.00,,,0.00,weatherlink.com 1.10,2013-03-14 06:05:00,
2013-03-14 00:20:00,58.7,25.0,30.08,WSW,250,20.0,30.0,28,0.00,,,0.00,weatherlink.com 1.10,2013-03-14 06:20:00,
2013-03-14 00:35:00,59.3,26.0,30.08,WSW,250,12.0,27.0,28,0.00,,,0.00,weatherlink.com 1.10,2013-03-14 06:35:00,
2013-03-14 00:50:00,59.9,26.0,30.07,WSW,240,15.0,31.0,27,0.00,,,0.00,weatherlink.com 1.10,2013-03-14 06:50:00,
2013-03-14 01:05:00,59.7,25.0,30.07,West,269,13.0,21.0,27,0.00,,,0.00,weatherlink.com 1.10,2013-03-14 07:05:00,
2013-03-14 01:20:00,51.0,27.0,30.09,North,5,10.0,14.0,39,0.00,,,0.00,weatherlink.com 1.10,2013-03-14 07:20:00,
2013-03-14 01:35:00,50.0,28.0,30.09,NNE,31,3.0,13.0,42,0.00,,,0.00,weatherlink.com 1.10,2013-03-14 07:35:00,
2013-03-14 01:50:00,51.4,27.0,30.10,NW,325,1.0,9.0,39,0.00,,,0.00,weatherlink.com 1.10,2013-03-14 07:50:00,
2013-03-14 02:05:00,58.5,26.0,30.09,West,263,17.0,17.0,29,0.00,,,0.00,weatherlink.com 1.10,2013-03-14 08:05:00,
2013-03-14 02:20:00,58.8,27.0,30.09,SW,236,12.0,19.0,30,0.00,,,0.00,weatherlink.com 1.10,2013-03-14 08:20:00,
2013-03-14 02:35:00,57.9,27.0,30.08,WSW,238,15.0,17.0,31,0.00,,,0.00,weatherlink.com 1.10,2013-03-14 08:35:00,
2013-03-14 02:50:00,58.7,27.0,30.08,SW,232,14.0,21.0,30,0.00,,,0.00,weatherlink.com 1.10,2013-03-14 08:50:00,
2013-03-14 03:05:00,57.8,28.0,30.09,WSW,237,16.0,22.0,32,0.00,,,0.00,weatherlink.com 1.10,2013-03-14 09:05:00,
2013-03-14 03:20:00,57.7,28.0,30.08,SW,221,12.0,21.0,32,0.00,,,0.00,weatherlink.com 1.10,2013-03-14 09:20:00,
2013-03-14 03:35:00,56.9,28.0,30.09,SSW,211,10.0,14.0,33,0.00,,,0.00,weatherlink.com 1.10,2013-03-14 09:35:00,
2013-03-14 03:50:00,57.7,29.0,30.09,WSW,241,11.0,23.0,34,0.00,,,0.00,weatherlink.com 1.10,2013-03-14 09:50:00,
2013-03-14 04:05:00,56.2,29.0,30.07,South,190,10.0,16.0,36,0.00,,,0.00,weatherlink.com 1.10,2013-03-14 10:05:00,
2013-03-14 04:20:00,55.7,29.0,30.07,South,171,10.0,13.0,36,0.00,,,0.00,weatherlink.com 1.10,2013-03-14 10:20:00,
2013-03-14 04:35:00,57.6,29.0,30.05,South,171,12.0,23.0,34,0.00,,,0.00,weatherlink.com 1.10,2013-03-14 10:35:00,
2013-03-14 04:50:00,55.5,29.0,30.04,South,182,8.0,15.0,36,0.00,,,0.00,weatherlink.com 1.10,2013-03-14 10:50:00,
2013-03-14 05:05:00,57.6,29.0,30.05,SW,227,11.0,17.0,34,0.00,,,0.00,weatherlink.com 1.10,2013-03-14 11:05:00,
2013-03-14 05:20:00,58.6,29.0,30.05,West,260,14.0,21.0,32,0.00,,,0.00,weatherlink.com 1.10,2013-03-14 11:20:00,
2013-03-14 05:35:00,55.1,27.0,30.06,NW,323,4.0,10.0,34,0.00,,,0.00,weatherlink.com 1.10,2013-03-14 11:35:00,
2013-03-14 05:50:00,49.4,28.0,30.05,NW,320,5.0,8.0,44,0.00,,,0.00,weatherlink.com 1.10,2013-03-14 11:50:00,
2013-03-14 06:05:00,47.3,27.0,30.05,NNW,337,6.0,13.0,45,0.00,,,0.00,weatherlink.com 1.10,2013-03-14 12:05:00,
2013-03-14 06:20:00,45.9,27.0,30.05,NNW,343,0.0,7.0,47,0.00,,,0.00,weatherlink.com 1.10,2013-03-14 12:20:00,
2013-03-14 06:35:00,45.0,26.0,30.05,NE,54,7.0,13.0,48,0.00,,,0.00,weatherlink.com 1.10,2013-03-14 12:35:00,
2013-03-14 06:50:00,44.9,27.0,30.05,NNE,24,9.0,16.0,50,0.00,,,0.00,weatherlink.com 1.10,2013-03-14 12:50:00,
2013-03-14 07:05:00,43.2,27.0,30.05,NNE,24,5.0,8.0,53,0.00,,,0.00,weatherlink.com 1.10,2013-03-14 13:05:00,
2013-03-14 07:20:00,43.8,27.0,30.05,NNE,24,2.0,5.0,51,0.00,,,0.00,weatherlink.com 1.10,2013-03-14 13:20:00,
2013-03-14 07:35:00,42.2,26.0,30.05,NNE,24,4.0,8.0,54,0.00,,,0.00,weatherlink.com 1.10,2013-03-14 13:35:00,
2013-03-14 07:50:00,42.3,27.0,30.05,NNE,24,3.0,3.0,54,0.00,,,0.00,weatherlink.com 1.10,2013-03-14 13:50:00,
2013-03-14 08:06:00,41.8,26.0,30.06,NNE,24,0.0,6.0,54,0.00,,,0.00,weatherlink.com 1.10,2013-03-14 14:06:00,
2013-03-14 08:21:00,42.6,27.0,30.05,NNE,24,0.0,3.0,54,0.00,,,0.00,weatherlink.com 1.10,2013-03-14 14:21:00,
2013-03-14 08:36:00,44.0,27.0,30.06,NNE,24,0.0,3.0,52,0.00,,,0.00,weatherlink.com 1.10,2013-03-14 14:36:00,
2013-03-14 08:51:00,44.2,27.0,30.05,NNE,24,3.0,5.0,52,0.00,,,0.00,weatherlink.com 1.10,2013-03-14 14:51:00,
2013-03-14 09:06:00,44.3,28.0,30.05,NNE,24,1.0,5.0,53,0.00,,,0.00,weatherlink.com 1.10,2013-03-14 15:06:00,
2013-03-14 09:21:00,45.1,28.0,30.05,NNE,24,0.0,4.0,51,0.00,,,0.00,weatherlink.com 1.10,2013-03-14 15:21:00,
2013-03-14 09:36:00,46.2,28.0,30.04,NNE,24,4.0,4.0,50,0.00,,,0.00,weatherlink.com 1.10,2013-03-14 15:36:00,
2013-03-14 09:51:00,47.4,28.0,30.04,NNE,24,0.0,5.0,48,0.00,,,0.00,weatherlink.com 1.10,2013-03-14 15:51:00,
2013-03-14 10:06:00,48.8,29.0,30.03,NNE,24,2.0,4.0,46,0.00,,,0.00,weatherlink.com 1.10,2013-03-14 16:06:00,
2013-03-14 10:21:00,50.3,30.0,30.02,NNE,24,0.0,4.0,45,0.00,,,0.00,weatherlink.com 1.10,2013-03-14 16:21:00,
2013-03-14 10:51:00,52.1,30.0,30.02,NNE,24,5.0,7.0,43,0.00,,,0.00,weatherlink.com 1.10,2013-03-14 16:51:00,
2013-03-14 11:09:00,52.0,31.0,30.02,NNE,24,6.0,8.0,45,0.00,,,0.00,weatherlink.com 1.10,2013-03-14 17:09:00,
2013-03-14 11:36:00,55.3,31.0,30.01,NNE,24,3.0,8.0,40,0.00,,,0.00,weatherlink.com 1.10,2013-03-14 17:36:00,
2013-03-14 12:06:00,59.0,30.0,30.01,NNE,26,8.0,12.0,34,0.00,,,0.00,weatherlink.com 1.10,2013-03-14 18:06:00,
2013-03-14 12:21:00,59.9,31.0,30.00,NNE,32,4.0,11.0,34,0.00,,,0.00,weatherlink.com 1.10,2013-03-14 18:21:00,
2013-03-14 12:36:00,60.7,30.0,30.00,NE,54,6.0,9.0,32,0.00,,,0.00,weatherlink.com 1.10,2013-03-14 18:36:00,
2013-03-14 12:51:00,61.8,31.0,30.00,NE,36,5.0,13.0,31,0.00,,,0.00,weatherlink.com 1.10,2013-03-14 18:51:00,
2013-03-14 13:21:00,63.4,30.0,29.99,NNE,19,8.0,10.0,28,0.00,,,0.00,weatherlink.com 1.10,2013-03-14 19:21:00,
2013-03-14 13:36:00,64.1,30.0,29.99,North,5,6.0,10.0,28,0.00,,,0.00,weatherlink.com 1.10,2013-03-14 19:36:00,
2013-03-14 13:51:00,64.6,30.0,29.98,North,355,7.0,9.0,27,0.00,,,0.00,weatherlink.com 1.10,2013-03-14 19:51:00,
2013-03-14 14:06:00,65.1,29.0,29.97,North,355,4.0,8.0,26,0.00,,,0.00,weatherlink.com 1.10,2013-03-14 20:06:00,
2013-03-14 14:21:00,65.0,29.0,29.97,North,355,1.0,5.0,26,0.00,,,0.00,weatherlink.com 1.10,2013-03-14 20:21:00,
2013-03-14 14:36:00,65.3,28.0,29.97,North,355,0.0,3.0,25,0.00,,,0.00,weatherlink.com 1.10,2013-03-14 20:36:00,
2013-03-14 14:51:00,65.7,29.0,29.96,North,355,7.0,8.0,25,0.00,,,0.00,weatherlink.com 1.10,2013-03-14 20:51:00,
2013-03-14 15:06:00,65.3,28.0,29.96,North,355,0.0,4.0,25,0.00,,,0.00,weatherlink.com 1.10,2013-03-14 21:06:00,
2013-03-14 15:21:00,65.2,28.0,29.96,North,355,2.0,3.0,25,0.00,,,0.00,weatherlink.com 1.10,2013-03-14 21:21:00,
2013-03-14 15:36:00,65.5,27.0,29.95,North,355,1.0,4.0,23,0.00,,,0.00,weatherlink.com 1.10,2013-03-14 21:36:00,
2013-03-14 15:51:00,65.8,26.0,29.96,North,355,0.0,4.0,22,0.00,,,0.00,weatherlink.com 1.10,2013-03-14 21:51:00,
2013-03-14 16:06:00,66.1,28.0,29.95,North,355,5.0,7.0,24,0.00,,,0.00,weatherlink.com 1.10,2013-03-14 22:06:00,
2013-03-14 16:21:00,66.9,29.0,29.95,North,9,1.0,12.0,24,0.00,,,0.00,weatherlink.com 1.10,2013-03-14 22:21:00,
2013-03-14 16:37:00,68.2,28.0,29.94,North,9,5.0,9.0,22,0.00,,,0.00,weatherlink.com 1.10,2013-03-14 22:37:00,
2013-03-14 16:52:00,67.8,27.0,29.94,North,9,6.0,8.0,22,0.00,,,0.00,weatherlink.com 1.10,2013-03-14 22:52:00,
2013-03-14 17:07:00,67.2,28.0,29.94,NNE,20,4.0,8.0,23,0.00,,,0.00,weatherlink.com 1.10,2013-03-14 23:07:00,
2013-03-14 17:22:00,67.4,28.0,29.93,ENE,70,4.0,10.0,23,0.00,,,0.00,weatherlink.com 1.10,2013-03-14 23:22:00,
2013-03-14 17:37:00,68.2,27.0,29.93,ENE,70,4.0,7.0,21,0.00,,,0.00,weatherlink.com 1.10,2013-03-14 23:37:00,
2013-03-14 17:52:00,69.0,21.0,29.92,West,269,6.0,18.0,16,0.00,,,0.00,weatherlink.com 1.10,2013-03-14 23:52:00,
2013-03-14 18:07:00,68.7,21.0,29.92,SW,228,9.0,15.0,16,0.00,,,0.00,weatherlink.com 1.10,2013-03-15 00:07:00,
2013-03-14 18:22:00,67.9,21.0,29.92,WSW,252,12.0,20.0,17,0.00,,,0.00,weatherlink.com 1.10,2013-03-15 00:22:00,
2013-03-14 18:37:00,67.5,21.0,29.92,WSW,245,15.0,16.0,17,0.00,,,0.00,weatherlink.com 1.10,2013-03-15 00:37:00,
2013-03-14 18:52:00,66.5,22.0,29.92,WSW,254,10.0,14.0,18,0.00,,,0.00,weatherlink.com 1.10,2013-03-15 00:52:00,
2013-03-14 19:07:00,65.7,22.0,29.91,WSW,251,11.0,17.0,19,0.00,,,0.00,weatherlink.com 1.10,2013-03-15 01:07:00,
2013-03-14 19:22:00,65.3,22.0,29.91,WSW,250,9.0,17.0,19,0.00,,,0.00,weatherlink.com 1.10,2013-03-15 01:22:00,
2013-03-14 19:37:00,65.1,23.0,29.91,SW,226,3.0,11.0,20,0.00,,,0.00,weatherlink.com 1.10,2013-03-15 01:37:00,
2013-03-14 19:52:00,63.6,23.0,29.90,WSW,253,12.0,16.0,21,0.00,,,0.00,weatherlink.com 1.10,2013-03-15 01:52:00,
2013-03-14 20:07:00,64.1,22.0,29.90,SW,219,17.0,17.0,20,0.00,,,0.00,weatherlink.com 1.10,2013-03-15 02:07:00,
2013-03-14 20:22:00,63.1,22.0,29.90,SW,221,7.0,11.0,21,0.00,,,0.00,weatherlink.com 1.10,2013-03-15 02:22:00,
2013-03-14 20:37:00,63.3,21.0,29.89,SW,218,9.0,16.0,20,0.00,,,0.00,weatherlink.com 1.10,2013-03-15 02:37:00,
2013-03-14 20:52:00,61.9,20.0,29.88,South,190,8.0,12.0,20,0.00,,,0.00,weatherlink.com 1.10,2013-03-15 02:52:00,
2013-03-14 21:07:00,63.0,19.0,29.87,SSW,212,10.0,18.0,18,0.00,,,0.00,weatherlink.com 1.10,2013-03-15 03:07:00,
2013-03-14 21:22:00,63.0,20.0,29.88,SSW,211,12.0,29.0,19,0.00,,,0.00,weatherlink.com 1.10,2013-03-15 03:22:00,
2013-03-14 21:37:00,61.6,21.0,29.87,SSW,203,10.0,23.0,21,0.00,,,0.00,weatherlink.com 1.10,2013-03-15 03:37:00,
2013-03-14 21:52:00,62.3,21.0,29.87,SSW,205,7.0,25.0,20,0.00,,,0.00,weatherlink.com 1.10,2013-03-15 03:52:00,
2013-03-14 22:07:00,61.5,20.0,29.87,SW,219,10.0,20.0,20,0.00,,,0.00,weatherlink.com 1.10,2013-03-15 04:07:00,
2013-03-14 22:22:00,59.9,21.0,29.87,WSW,238,20.0,21.0,22,0.00,,,0.00,weatherlink.com 1.10,2013-03-15 04:22:00,
2013-03-14 22:37:00,61.3,20.0,29.87,SW,223,10.0,16.0,20,0.00,,,0.00,weatherlink.com 1.10,2013-03-15 04:37:00,
2013-03-14 22:52:00,60.1,20.0,29.86,SW,217,13.0,16.0,21,0.00,,,0.00,weatherlink.com 1.10,2013-03-15 04:52:00,
2013-03-14 23:07:00,61.6,20.0,29.86,SW,219,11.0,17.0,20,0.00,,,0.00,weatherlink.com 1.10,2013-03-15 05:07:00,
2013-03-14 23:22:00,61.4,21.0,29.86,SW,226,10.0,22.0,21,0.00,,,0.00,weatherlink.com 1.10,2013-03-15 05:22:00,
2013-03-14 23:37:00,60.3,20.0,29.86,SW,221,10.0,15.0,21,0.00,,,0.00,weatherlink.com 1.10,2013-03-15 05:37:00,
2013-03-14 23:52:00,60.7,20.0,29.84,SW,228,9.0,14.0,21,0.00,,,0.00,weatherlink.com 1.10,2013-03-15 05:52:00,